createdAt,value
2018-01-26T00:01:35.808Z,28.13
2018-01-26T00:04:03.295Z,33.70
2018-01-26T00:06:30.790Z,37.40
2018-01-26T00:08:58.284Z,30.40
2018-01-26T00:11:25.770Z,31.23
2018-01-26T00:13:53.253Z,30.17
2018-01-26T00:16:20.724Z,31.30
2018-01-26T00:18:48.975Z,35.50
2018-01-26T00:21:16.465Z,38.70
2018-01-26T00:23:44.707Z,31.13
2018-01-26T00:26:12.183Z,32.17
2018-01-26T00:28:40.437Z,33.17
2018-01-26T00:31:07.905Z,36.07
2018-01-26T00:33:35.427Z,28.80
2018-01-26T00:36:02.856Z,32.23
2018-01-26T00:38:30.346Z,29.20
2018-01-26T00:40:57.819Z,32.63
2018-01-26T00:43:25.323Z,32.53
2018-01-26T00:45:52.805Z,30.13
2018-01-26T00:48:20.282Z,33.73
2018-01-26T00:50:47.779Z,35.67
2018-01-26T00:53:16.017Z,33.00
2018-01-26T00:55:43.507Z,33.53
2018-01-26T00:58:11.743Z,32.07
2018-01-26T01:00:39.238Z,30.70
2018-01-26T01:03:06.719Z,32.23
2018-01-26T01:05:34.215Z,33.77
2018-01-26T01:08:01.692Z,26.00
2018-01-26T01:10:29.936Z,28.20
2018-01-26T01:12:57.418Z,23.27
2018-01-26T01:15:25.673Z,29.27
2018-01-26T01:17:53.166Z,26.87
2018-01-26T01:20:21.461Z,29.50
2018-01-26T01:22:48.942Z,25.27
2018-01-26T01:25:16.407Z,28.83
2018-01-26T01:27:43.879Z,25.37
2018-01-26T01:30:11.355Z,28.20
2018-01-26T01:32:39.644Z,26.43
2018-01-26T01:35:07.125Z,24.73
2018-01-26T01:37:34.628Z,29.27
2018-01-26T01:40:02.107Z,24.97
2018-01-26T01:42:30.363Z,24.63
2018-01-26T01:53:32.902Z,29.83
2018-01-26T01:56:01.166Z,26.30
2018-01-26T01:58:29.418Z,27.73
2018-01-26T02:00:56.905Z,31.07
2018-01-26T02:03:26.160Z,26.93
2018-01-26T02:05:53.640Z,21.23
2018-01-26T02:08:21.122Z,30.63
2018-01-26T02:10:48.610Z,23.53
2018-01-26T02:13:16.090Z,24.67
2018-01-26T02:15:43.578Z,24.57
2018-01-26T02:18:11.829Z,23.07
2018-01-26T02:20:39.330Z,25.20
2018-01-26T02:23:06.805Z,24.43
2018-01-26T02:25:34.298Z,26.30
2018-01-26T02:28:01.886Z,23.50
2018-01-26T02:30:29.359Z,28.50
2018-01-26T02:32:56.826Z,21.23
2018-01-26T02:35:24.324Z,26.37
2018-01-26T02:37:51.809Z,24.90
2018-01-26T02:40:20.066Z,25.10
2018-01-26T02:42:47.533Z,31.87
2018-01-26T02:45:15.785Z,26.07
2018-01-26T02:47:43.285Z,25.53
2018-01-26T02:50:10.747Z,25.43
2018-01-26T02:52:38.255Z,25.97
2018-01-26T02:55:05.725Z,23.43
2018-01-26T02:57:33.953Z,21.80
2018-01-26T03:00:01.447Z,24.73
2018-01-26T03:02:28.923Z,22.27
2018-01-26T03:04:57.162Z,21.17
2018-01-26T03:07:26.147Z,21.67
2018-01-26T03:09:53.610Z,23.43
2018-01-26T03:12:21.087Z,28.13
2018-01-26T03:14:49.324Z,21.20
2018-01-26T03:17:16.798Z,24.63
2018-01-26T03:19:44.290Z,21.70
2018-01-26T03:22:11.763Z,24.00
2018-01-26T03:24:39.286Z,22.87
2018-01-26T03:27:07.541Z,26.10
2018-01-26T03:29:35.045Z,26.23
2018-01-26T03:32:02.508Z,23.63
2018-01-26T03:34:29.990Z,25.23
2018-01-26T03:36:57.466Z,24.93
2018-01-26T03:39:24.941Z,25.03
2018-01-26T03:41:53.193Z,24.80
2018-01-26T03:44:20.665Z,27.43
2018-01-26T03:46:48.131Z,28.47
2018-01-26T03:49:16.358Z,27.87
2018-01-26T03:51:43.842Z,23.50
2018-01-26T03:54:11.311Z,29.13
2018-01-26T03:56:39.581Z,26.57
2018-01-26T03:59:07.814Z,30.93
2018-01-26T04:01:35.274Z,30.70
2018-01-26T04:04:02.759Z,31.50
2018-01-26T04:06:30.223Z,32.57
2018-01-26T04:08:58.454Z,30.87
2018-01-26T04:11:25.965Z,28.17
2018-01-26T04:13:54.191Z,29.63
2018-01-26T04:16:21.725Z,33.00
2018-01-26T04:18:49.199Z,26.50
2018-01-26T04:21:16.678Z,28.53
2018-01-26T04:23:44.158Z,32.90
2018-01-26T04:26:12.403Z,26.63
2018-01-26T04:28:39.919Z,34.73
2018-01-26T04:31:07.412Z,33.20
2018-01-26T04:33:34.965Z,31.30
2018-01-26T04:36:02.433Z,36.77
2018-01-26T04:38:29.914Z,31.23
2018-01-26T04:40:58.163Z,31.20
2018-01-26T04:43:25.634Z,29.03
2018-01-26T04:45:53.166Z,34.70
2018-01-26T04:48:20.654Z,30.23
2018-01-26T04:50:49.200Z,32.10
2018-01-26T04:53:16.728Z,32.07
2018-01-26T04:55:44.437Z,29.90
2018-01-26T04:58:11.950Z,29.77
2018-01-26T05:00:39.522Z,33.03
2018-01-26T05:03:06.986Z,36.97
2018-01-26T05:05:34.473Z,35.13
2018-01-26T05:08:01.958Z,30.73
2018-01-26T05:10:29.422Z,35.33
2018-01-26T05:12:56.956Z,34.63
2018-01-26T05:15:25.213Z,36.13
2018-01-26T05:17:53.487Z,33.37
2018-01-26T05:20:20.976Z,30.67
2018-01-26T05:22:48.660Z,29.77
2018-01-26T05:25:16.119Z,29.73
2018-01-26T05:27:43.602Z,29.37
2018-01-26T05:30:11.063Z,34.00
2018-01-26T05:32:39.290Z,31.40
2018-01-26T05:35:06.766Z,28.60
2018-01-26T05:37:34.254Z,31.57
2018-01-26T05:40:01.723Z,29.07
2018-01-26T05:42:29.980Z,28.63
2018-01-26T05:44:57.458Z,29.73
2018-01-26T05:47:25.690Z,29.93
2018-01-26T05:49:53.208Z,27.20
2018-01-26T05:52:20.671Z,25.50
2018-01-26T05:54:48.171Z,27.70
2018-01-26T05:57:15.650Z,29.53
2018-01-26T05:59:43.920Z,33.70
2018-01-26T06:02:12.181Z,28.70
2018-01-26T06:04:39.641Z,26.07
2018-01-26T06:07:07.160Z,25.77
2018-01-26T06:09:34.627Z,31.63
2018-01-26T06:12:02.126Z,32.33
2018-01-26T06:14:30.392Z,35.17
2018-01-26T06:16:57.842Z,34.10
2018-01-26T06:19:26.090Z,33.73
2018-01-26T06:21:53.578Z,30.33
2018-01-26T06:24:21.844Z,31.43
2018-01-26T06:26:49.334Z,29.97
2018-01-26T06:29:16.810Z,35.17
2018-01-26T06:31:45.295Z,33.57
2018-01-26T06:34:12.852Z,40.70
2018-01-26T06:36:40.327Z,37.20
2018-01-26T06:39:07.824Z,37.00
2018-01-26T06:41:36.053Z,37.47
2018-01-26T06:44:03.519Z,43.17
2018-01-26T06:46:31.782Z,38.63
2018-01-26T06:48:59.268Z,37.33
2018-01-26T06:51:26.759Z,37.60
2018-01-26T06:53:54.232Z,31.17
2018-01-26T06:56:21.700Z,37.83
2018-01-26T06:58:49.162Z,30.53
2018-01-26T07:01:16.700Z,33.03
2018-01-26T07:03:44.917Z,34.23
2018-01-26T07:06:12.406Z,37.17
2018-01-26T07:08:39.892Z,30.67
2018-01-26T07:11:07.373Z,32.27
2018-01-26T07:13:34.843Z,31.13
2018-01-26T07:16:02.326Z,27.63
2018-01-26T07:18:29.818Z,32.47
2018-01-26T07:20:57.294Z,27.57
2018-01-26T07:23:24.794Z,28.67
2018-01-26T07:25:52.276Z,25.90
2018-01-26T07:28:19.794Z,31.60
2018-01-26T07:30:48.031Z,27.17
2018-01-26T07:33:15.580Z,27.43
2018-01-26T07:35:43.042Z,28.20
2018-01-26T07:38:10.530Z,27.53
2018-01-26T07:40:38.023Z,28.80
2018-01-26T07:43:05.565Z,28.23
2018-01-26T07:45:33.823Z,28.73
2018-01-26T07:48:02.109Z,26.77
2018-01-26T07:50:30.361Z,27.77
2018-01-26T07:52:57.898Z,27.40
2018-01-26T07:55:25.382Z,25.37
2018-01-26T07:57:52.884Z,30.80
2018-01-26T08:00:20.359Z,25.77
2018-01-26T08:02:47.848Z,30.13
2018-01-26T08:05:16.081Z,31.50
2018-01-26T08:07:43.583Z,30.10
2018-01-26T08:10:11.045Z,27.93
2018-01-26T08:12:39.353Z,33.40
2018-01-26T08:15:06.822Z,33.77
2018-01-26T08:17:34.291Z,34.03
2018-01-26T08:20:01.784Z,29.80
2018-01-26T08:22:30.023Z,28.33
2018-01-26T08:24:57.529Z,27.37
2018-01-26T08:27:25.019Z,25.83
2018-01-26T08:29:52.480Z,20.97
2018-01-26T08:32:19.955Z,24.13
2018-01-26T08:34:47.438Z,22.60
2018-01-26T08:37:15.684Z,25.10
2018-01-26T08:39:43.142Z,25.23
2018-01-26T08:42:10.629Z,20.47
2018-01-26T08:44:38.947Z,20.23
2018-01-26T08:47:06.488Z,20.60
2018-01-26T08:49:33.968Z,20.90
2018-01-26T08:52:01.450Z,23.10
2018-01-26T08:54:29.693Z,19.00
2018-01-26T08:56:57.191Z,20.33
2018-01-26T08:59:24.654Z,21.43
2018-01-26T09:01:52.911Z,23.73
2018-01-26T09:04:20.388Z,24.83
2018-01-26T09:06:48.641Z,19.63
2018-01-26T09:09:16.116Z,24.50
2018-01-26T09:11:44.391Z,23.00
2018-01-26T09:14:12.645Z,21.33
2018-01-26T09:16:40.157Z,21.33
2018-01-26T09:19:07.645Z,22.67
2018-01-26T09:21:35.115Z,21.57
2018-01-26T09:24:02.599Z,21.50
2018-01-26T09:26:30.858Z,22.50
2018-01-26T09:28:59.102Z,21.07
2018-01-26T09:31:26.606Z,19.60
2018-01-26T09:33:54.856Z,17.90
2018-01-26T09:36:23.122Z,17.20
2018-01-26T09:38:50.611Z,19.20
2018-01-26T09:41:18.854Z,17.93
2018-01-26T09:43:46.337Z,15.63
2018-01-26T09:46:14.571Z,16.17
2018-01-26T09:48:42.054Z,21.40
2018-01-26T09:51:10.290Z,14.67
2018-01-26T09:53:37.747Z,16.00
2018-01-26T09:56:05.223Z,15.27
2018-01-26T09:58:32.709Z,19.50
2018-01-26T10:01:00.187Z,16.93
2018-01-26T10:03:27.654Z,13.97
2018-01-26T10:05:55.183Z,21.03
2018-01-26T10:08:22.713Z,15.30
2018-01-26T10:10:50.209Z,15.47
2018-01-26T10:13:17.686Z,18.30
2018-01-26T10:15:45.190Z,18.07
2018-01-26T10:18:12.661Z,18.67
2018-01-26T10:20:40.898Z,17.30
2018-01-26T10:23:08.386Z,13.87
2018-01-26T10:25:36.689Z,17.87
2018-01-26T10:28:04.182Z,19.73
2018-01-26T10:30:31.684Z,16.07
2018-01-26T10:32:59.177Z,12.87
2018-01-26T10:35:26.635Z,16.97
2018-01-26T10:37:54.150Z,13.63
2018-01-26T10:40:22.407Z,17.67
2018-01-26T10:42:51.012Z,10.83
2018-01-26T10:45:18.497Z,14.07
2018-01-26T10:47:46.006Z,16.43
2018-01-26T10:50:13.463Z,12.30
2018-01-26T10:52:41.709Z,13.93
2018-01-26T10:55:09.169Z,12.43
2018-01-26T10:57:36.661Z,16.33
2018-01-26T11:00:04.136Z,14.63
2018-01-26T11:02:31.610Z,18.93
2018-01-26T11:04:59.088Z,20.33
2018-01-26T11:07:26.544Z,14.37
2018-01-26T11:09:55.538Z,14.30
2018-01-26T11:12:23.027Z,15.23
2018-01-26T11:14:51.284Z,13.50
2018-01-26T11:17:18.746Z,15.40
2018-01-26T11:19:46.990Z,15.73
2018-01-26T11:22:14.483Z,13.50
2018-01-26T11:24:42.748Z,15.67
2018-01-26T11:27:12.220Z,15.90
2018-01-26T11:29:39.724Z,17.63
2018-01-26T11:32:07.973Z,13.70
2018-01-26T11:34:35.443Z,12.93
2018-01-26T11:37:03.679Z,16.70
2018-01-26T11:39:31.163Z,17.27
2018-01-26T11:41:59.425Z,15.33
2018-01-26T11:44:26.920Z,13.37
2018-01-26T11:46:54.408Z,18.93
2018-01-26T11:49:21.889Z,18.03
2018-01-26T11:51:49.435Z,20.17
2018-01-26T11:54:16.915Z,18.93
2018-01-26T11:56:44.427Z,13.80
2018-01-26T11:59:11.920Z,12.03
2018-01-26T12:01:39.422Z,26.20
2018-01-26T12:04:06.898Z,17.73
2018-01-26T12:06:34.403Z,13.80
2018-01-26T12:09:02.694Z,19.63
2018-01-26T12:11:30.238Z,14.40
2018-01-26T12:13:58.471Z,16.57
2018-01-26T12:16:25.972Z,17.13
2018-01-26T12:18:54.216Z,14.97
2018-01-26T12:21:21.694Z,14.30
2018-01-26T12:23:49.972Z,18.77
2018-01-26T12:26:18.228Z,13.37
2018-01-26T12:28:45.715Z,8.67
2018-01-26T12:31:13.951Z,16.77
2018-01-26T12:33:41.459Z,13.10
2018-01-26T12:36:08.931Z,16.10
2018-01-26T12:38:36.449Z,14.70
2018-01-26T12:41:04.710Z,16.10
2018-01-26T12:43:33.300Z,19.63
2018-01-26T12:46:00.765Z,15.77
2018-01-26T12:48:29.042Z,15.80
2018-01-26T12:50:57.285Z,13.93
2018-01-26T12:53:26.288Z,16.10
2018-01-26T12:55:53.762Z,17.80
2018-01-26T12:58:22.025Z,15.87
2018-01-26T13:00:50.265Z,16.37
2018-01-26T13:03:17.734Z,13.03
2018-01-26T13:05:45.218Z,18.13
2018-01-26T13:08:13.476Z,15.00
2018-01-26T13:10:40.975Z,18.47
2018-01-26T13:13:08.440Z,21.37
2018-01-26T13:15:35.931Z,14.37
2018-01-26T13:18:03.490Z,14.70
2018-01-26T13:20:30.987Z,14.17
2018-01-26T13:22:58.459Z,16.43
2018-01-26T13:25:25.974Z,19.93
2018-01-26T13:27:53.485Z,17.23
2018-01-26T13:30:20.958Z,17.70
2018-01-26T13:32:48.464Z,12.27
2018-01-26T13:35:16.743Z,18.57
2018-01-26T13:37:45.682Z,13.87
2018-01-26T13:40:13.161Z,17.83
2018-01-26T13:42:40.689Z,16.83
2018-01-26T13:45:08.160Z,14.67
2018-01-26T13:47:35.631Z,19.20
2018-01-26T13:50:03.112Z,13.53
2018-01-26T13:52:30.627Z,16.07
2018-01-26T13:54:58.109Z,19.13
2018-01-26T13:57:26.370Z,14.90
2018-01-26T13:59:53.859Z,17.53
2018-01-26T14:02:21.517Z,14.40
2018-01-26T14:04:49.763Z,17.97
2018-01-26T14:07:18.018Z,12.73
2018-01-26T14:09:45.543Z,17.57
2018-01-26T14:12:14.217Z,16.47
2018-01-26T14:14:41.698Z,14.00
2018-01-26T14:17:09.190Z,12.47
2018-01-26T14:19:36.710Z,18.87
2018-01-26T14:22:04.194Z,21.13
2018-01-26T14:24:31.792Z,13.43
2018-01-26T14:27:00.120Z,22.40
2018-01-26T14:29:27.630Z,16.83
2018-01-26T14:31:55.124Z,12.10
2018-01-26T14:34:22.612Z,17.50
2018-01-26T14:36:50.868Z,16.30
2018-01-26T14:39:18.405Z,13.37
2018-01-26T14:41:45.904Z,16.93
2018-01-26T14:44:13.388Z,16.37
2018-01-26T14:46:40.873Z,14.77
2018-01-26T14:49:08.350Z,17.37
2018-01-26T14:51:35.831Z,15.17
2018-01-26T14:54:04.074Z,15.20
2018-01-26T14:56:31.585Z,17.50
2018-01-26T14:58:59.058Z,17.53
2018-01-26T15:01:26.586Z,16.13
2018-01-26T15:03:54.818Z,15.47
2018-01-26T15:06:22.302Z,17.23
2018-01-26T15:08:50.554Z,23.50
2018-01-26T15:11:18.037Z,23.70
2018-01-26T15:13:46.310Z,21.50
2018-01-26T15:16:13.938Z,24.93
2018-01-26T15:18:41.439Z,24.60
2018-01-26T15:21:09.739Z,17.20
2018-01-26T15:23:37.216Z,20.57
2018-01-26T15:26:04.741Z,21.03
2018-01-26T15:28:32.229Z,20.47
2018-01-26T15:30:59.724Z,20.03
2018-01-26T15:33:27.469Z,18.63
2018-01-26T15:35:54.953Z,24.00
2018-01-26T15:38:23.204Z,24.77
2018-01-26T15:40:51.472Z,17.40
2018-01-26T15:43:18.950Z,22.43
2018-01-26T15:45:47.211Z,20.90
2018-01-26T15:48:15.465Z,23.10
2018-01-26T15:50:42.946Z,26.17
2018-01-26T15:53:11.190Z,18.37
2018-01-26T15:55:38.683Z,19.17
2018-01-26T15:58:06.914Z,21.10
2018-01-26T16:00:34.419Z,23.40
2018-01-26T16:03:02.660Z,19.93
2018-01-26T16:05:30.143Z,22.87
2018-01-26T16:07:58.403Z,25.53
2018-01-26T16:10:25.879Z,22.07
2018-01-26T16:12:53.399Z,22.27
2018-01-26T16:15:21.212Z,22.20
2018-01-26T16:17:49.427Z,26.77
2018-01-26T16:20:16.902Z,25.97
2018-01-26T16:22:44.404Z,23.37
2018-01-26T16:25:11.934Z,24.33
2018-01-26T16:27:40.194Z,25.50
2018-01-26T16:30:07.803Z,29.60
2018-01-26T16:32:35.281Z,50.87
2018-01-26T16:35:02.751Z,32.40
2018-01-26T16:37:30.263Z,41.30
2018-01-26T16:39:57.745Z,27.60
2018-01-26T16:42:25.227Z,35.67
2018-01-26T16:44:52.708Z,28.17
2018-01-26T16:47:21.054Z,28.40
2018-01-26T16:49:48.521Z,29.87
2018-01-26T16:52:16.014Z,23.80
2018-01-26T16:54:44.339Z,24.40
2018-01-26T16:57:11.826Z,26.37
2018-01-26T16:59:40.057Z,28.87
2018-01-26T17:02:07.552Z,31.77
2018-01-26T17:04:35.066Z,26.77
2018-01-26T17:07:02.591Z,25.23
2018-01-26T17:09:30.091Z,31.70
2018-01-26T17:11:57.560Z,31.50
2018-01-26T17:14:26.585Z,29.37
2018-01-26T17:16:55.088Z,28.37
2018-01-26T17:19:22.570Z,30.67
2018-01-26T17:21:50.101Z,31.33
2018-01-26T17:24:18.420Z,31.60
2018-01-26T17:26:47.939Z,26.53
2018-01-26T17:29:16.557Z,35.47
2018-01-26T17:31:44.063Z,31.43
2018-01-26T17:34:12.383Z,30.23
2018-01-26T17:36:39.892Z,33.80
2018-01-26T17:39:07.521Z,35.53
2018-01-26T17:41:35.035Z,34.53
2018-01-26T17:44:03.497Z,54.27
2018-01-26T17:46:31.008Z,53.63
2018-01-26T17:48:58.510Z,52.00
2018-01-26T17:51:26.759Z,56.00
2018-01-26T17:53:54.252Z,50.97
2018-01-26T17:56:21.755Z,57.07
2018-01-26T17:58:49.294Z,57.53
2018-01-26T18:01:16.734Z,57.60
2018-01-26T18:03:44.979Z,44.50
2018-01-26T18:06:12.498Z,46.13
2018-01-26T18:08:40.923Z,46.80
2018-01-26T18:11:08.415Z,45.93
2018-01-26T18:13:36.071Z,54.47
2018-01-26T18:16:03.546Z,51.30
2018-01-26T18:18:31.063Z,56.70
2018-01-26T18:20:58.556Z,66.67
2018-01-26T18:23:26.084Z,61.57
2018-01-26T18:25:54.432Z,48.77
2018-01-26T18:28:21.962Z,56.00
2018-01-26T18:30:49.556Z,63.83
2018-01-26T18:33:17.180Z,66.07
2018-01-26T18:44:17.714Z,45.80
2018-01-26T18:46:45.387Z,63.87
2018-01-26T18:49:12.906Z,39.40
2018-01-26T18:51:40.396Z,42.97
2018-01-26T18:54:10.116Z,33.63
2018-01-26T18:56:38.620Z,38.63
2018-01-26T18:59:06.352Z,35.20
2018-01-26T19:01:34.494Z,42.07
2018-01-26T19:12:36.568Z,51.60
2018-01-26T19:15:04.079Z,46.73
2018-01-26T19:17:31.552Z,44.93
2018-01-26T19:19:59.814Z,46.23
2018-01-26T19:22:27.293Z,49.27
2018-01-26T19:24:55.543Z,42.70
2018-01-26T19:27:23.028Z,51.40
2018-01-26T19:29:50.502Z,47.00
2018-01-26T19:32:18.058Z,44.30
2018-01-26T19:34:45.549Z,46.30
2018-01-26T19:37:13.067Z,44.27
2018-01-26T19:45:21.826Z,36.90
2018-01-26T19:47:49.310Z,44.90
2018-01-26T19:50:17.219Z,37.10
2018-01-26T19:52:44.712Z,36.43
2018-01-26T19:55:12.199Z,34.23
2018-01-26T19:57:39.720Z,32.10
2018-01-26T20:00:08.622Z,35.47
2018-01-26T20:02:36.471Z,31.83
2018-01-26T20:13:41.207Z,28.33
2018-01-26T20:16:09.012Z,28.30
2018-01-26T20:18:36.532Z,33.10
2018-01-26T20:21:04.833Z,31.30
2018-01-26T20:23:33.070Z,37.43
2018-01-26T20:26:00.588Z,26.07
2018-01-26T20:28:28.091Z,28.47
2018-01-26T20:30:55.897Z,29.57
2018-01-26T20:33:23.756Z,24.60
2018-01-26T20:35:51.732Z,29.43
2018-01-26T20:38:19.270Z,27.40
2018-01-26T20:40:46.777Z,24.00
2018-01-26T20:43:14.382Z,29.67
2018-01-26T20:45:41.937Z,29.70
2018-01-26T20:48:09.454Z,27.77
2018-01-26T20:50:36.905Z,31.40
2018-01-26T20:53:04.529Z,33.57
2018-01-26T20:55:32.357Z,36.87
2018-01-26T20:57:59.858Z,30.43
2018-01-26T21:00:27.714Z,28.37
2018-01-26T21:02:55.260Z,35.20
2018-01-26T21:05:23.139Z,32.37
2018-01-26T21:07:50.652Z,32.10
2018-01-26T21:10:18.145Z,32.50
2018-01-26T21:12:45.911Z,30.90
2018-01-26T21:15:14.587Z,29.10
2018-01-26T21:17:42.055Z,31.90
2018-01-26T21:20:09.556Z,35.63
2018-01-26T21:22:37.049Z,31.60
2018-01-26T21:25:04.545Z,37.73
2018-01-26T21:27:32.027Z,36.30
2018-01-26T21:29:59.508Z,29.47
2018-01-26T21:32:27.758Z,36.67
2018-01-26T21:34:55.247Z,34.30
2018-01-26T21:37:22.733Z,45.93
2018-01-26T21:39:50.221Z,46.60
2018-01-26T21:42:17.699Z,35.37
2018-01-26T21:44:45.953Z,30.27
2018-01-26T21:47:13.447Z,25.43
2018-01-26T21:49:40.925Z,27.23
2018-01-26T21:52:08.402Z,33.73
2018-01-26T21:54:35.889Z,32.27
2018-01-26T21:57:03.409Z,33.73
2018-01-26T21:59:30.880Z,32.83
2018-01-26T22:01:58.372Z,30.97
2018-01-26T22:04:32.206Z,32.40
2018-01-26T22:07:05.276Z,31.43
2018-01-26T22:09:32.756Z,28.97
2018-01-26T22:12:00.241Z,31.00
2018-01-26T22:14:27.730Z,36.77
2018-01-26T22:16:55.991Z,27.93
2018-01-26T22:19:23.485Z,30.77
2018-01-26T22:21:50.959Z,34.67
2018-01-26T22:24:18.445Z,38.43
2018-01-26T22:26:45.921Z,28.37
2018-01-26T22:29:14.251Z,31.27
2018-01-26T22:31:41.729Z,32.03
2018-01-26T22:34:09.216Z,30.07
2018-01-26T22:36:37.455Z,31.80
2018-01-26T22:39:04.944Z,34.07
2018-01-26T22:41:33.185Z,31.73
2018-01-26T22:44:00.702Z,35.50
2018-01-26T22:46:28.184Z,35.33
2018-01-26T22:48:55.659Z,40.00
2018-01-26T22:51:23.144Z,37.73
2018-01-26T22:53:51.387Z,35.73
2018-01-26T22:56:18.881Z,34.47
2018-01-26T22:58:46.369Z,37.47
2018-01-26T23:01:13.855Z,34.27
2018-01-26T23:03:41.351Z,32.20
2018-01-26T23:06:09.617Z,39.27
2018-01-26T23:08:37.132Z,36.40
2018-01-26T23:11:04.626Z,37.60
2018-01-26T23:13:32.878Z,27.57
2018-01-26T23:16:00.356Z,29.43
2018-01-26T23:18:28.595Z,30.57
2018-01-26T23:20:56.090Z,25.67
2018-01-26T23:23:24.328Z,30.73
2018-01-26T23:25:51.813Z,31.50
2018-01-26T23:28:20.083Z,28.33
2018-01-26T23:30:47.544Z,28.23
2018-01-26T23:33:15.796Z,26.87
2018-01-26T23:35:43.266Z,27.87
2018-01-26T23:38:11.537Z,29.87
2018-01-26T23:40:39.026Z,30.63
2018-01-26T23:43:06.519Z,26.40
2018-01-26T23:45:34.003Z,29.73
2018-01-26T23:48:01.479Z,31.30
2018-01-26T23:50:29.754Z,29.80
2018-01-26T23:52:57.250Z,34.50
2018-01-26T23:55:24.730Z,32.33
2018-01-26T23:57:52.199Z,31.20
